createdAt,value
2022-12-31T00:02:22.562Z,96101.78
2022-12-31T00:04:51.174Z,96106.34
2022-12-31T00:07:17.711Z,96108.50
2022-12-31T00:09:44.170Z,96114.34
2022-12-31T00:12:10.606Z,96115.50
2022-12-31T00:14:37.083Z,96115.06
2022-12-31T00:17:03.580Z,96113.59
2022-12-31T00:19:30.104Z,96111.78
2022-12-31T00:21:56.591Z,96113.59
2022-12-31T00:24:23.037Z,96108.38
2022-12-31T00:26:49.561Z,96112.94
2022-12-31T00:29:16.014Z,96107.69
2022-12-31T00:31:42.525Z,96111.75
2022-12-31T00:34:09.717Z,96105.84
2022-12-31T00:36:37.309Z,96101.75
2022-12-31T00:39:05.076Z,96114.16
2022-12-31T00:41:31.932Z,96111.53
2022-12-31T00:43:58.956Z,96104.69
2022-12-31T00:46:25.767Z,96105.66
2022-12-31T00:48:52.484Z,96112.53
2022-12-31T00:51:20.091Z,96103.19
2022-12-31T00:53:46.701Z,96101.84
2022-12-31T00:56:14.735Z,96110.69
2022-12-31T00:58:41.503Z,96101.13
2022-12-31T01:01:12.197Z,96105.19
2022-12-31T01:03:39.122Z,96109.44
2022-12-31T01:06:05.917Z,96115.66
2022-12-31T01:08:32.429Z,96115.81
2022-12-31T01:11:18.108Z,96124.13
2022-12-31T01:13:47.842Z,96114.66
2022-12-31T01:16:14.750Z,96118.13
2022-12-31T01:18:41.502Z,96109.44
2022-12-31T01:21:09.505Z,96099.81
2022-12-31T01:23:36.467Z,96095.53
2022-12-31T01:26:05.000Z,96092.41
2022-12-31T01:28:31.876Z,96084.53
2022-12-31T01:30:58.678Z,96087.44
2022-12-31T01:33:25.236Z,96097.59
2022-12-31T01:35:51.901Z,96106.78
2022-12-31T01:38:18.359Z,96110.06
2022-12-31T01:40:44.811Z,96108.09
2022-12-31T01:43:16.418Z,96106.47
2022-12-31T01:45:43.755Z,96116.25
2022-12-31T01:48:12.214Z,96115.28
2022-12-31T01:50:40.941Z,96116.25
2022-12-31T01:53:08.558Z,96114.25
2022-12-31T01:55:47.411Z,96114.25
2022-12-31T01:58:15.922Z,96107.09
2022-12-31T02:00:42.979Z,96100.22
2022-12-31T02:03:09.690Z,96107.38
2022-12-31T02:05:39.439Z,96116.50
2022-12-31T02:08:06.444Z,96110.47
2022-12-31T02:10:32.957Z,96109.25
2022-12-31T02:13:00.023Z,96104.34
2022-12-31T02:15:49.847Z,96103.69
2022-12-31T02:18:25.580Z,96104.66
2022-12-31T02:21:10.973Z,96108.38
2022-12-31T02:23:56.212Z,96116.22
2022-12-31T02:26:41.662Z,96115.53
2022-12-31T02:29:31.369Z,96119.44
2022-12-31T02:31:59.835Z,96104.88
2022-12-31T02:34:43.223Z,96118.09
2022-12-31T02:37:12.299Z,96101.75
2022-12-31T02:39:39.492Z,96115.63
2022-12-31T02:42:05.922Z,96120.03
2022-12-31T02:44:34.226Z,96125.78
2022-12-31T02:47:03.817Z,96116.69
2022-12-31T02:49:45.344Z,96126.00
2022-12-31T02:52:20.912Z,96133.81
2022-12-31T02:54:53.050Z,96132.03
2022-12-31T02:57:40.273Z,96132.94
2022-12-31T03:00:27.100Z,96126.09
2022-12-31T03:02:55.104Z,96124.88
2022-12-31T03:05:24.031Z,96125.50
2022-12-31T03:07:50.755Z,96124.66
2022-12-31T03:10:17.286Z,96125.50
2022-12-31T03:12:47.279Z,96123.84
2022-12-31T03:15:20.072Z,96125.78
2022-12-31T03:17:49.855Z,96125.63
2022-12-31T03:20:35.010Z,96129.91
2022-12-31T03:23:01.639Z,96141.81
2022-12-31T03:25:39.050Z,96145.25
2022-12-31T03:28:07.711Z,96136.59
2022-12-31T03:30:34.772Z,96124.22
2022-12-31T03:33:01.608Z,96126.81
2022-12-31T03:35:29.509Z,96129.28
2022-12-31T03:37:56.609Z,96119.66
2022-12-31T03:40:23.940Z,96105.75
2022-12-31T03:42:50.641Z,96119.66
2022-12-31T03:45:17.161Z,96115.09
2022-12-31T03:47:43.591Z,96114.50
2022-12-31T03:50:10.976Z,96116.19
2022-12-31T03:52:37.431Z,96117.25
2022-12-31T03:55:04.779Z,96123.19
2022-12-31T03:57:31.742Z,96127.50
2022-12-31T03:59:58.492Z,96132.09
2022-12-31T04:02:29.032Z,96124.94
2022-12-31T04:04:55.943Z,96130.16
2022-12-31T04:07:22.397Z,96129.84
2022-12-31T04:09:48.839Z,96134.78
2022-12-31T04:12:15.464Z,96126.47
2022-12-31T04:14:42.008Z,96125.00
2022-12-31T04:17:08.461Z,96132.28
2022-12-31T04:19:34.899Z,96129.44
2022-12-31T04:22:01.530Z,96134.22
2022-12-31T04:24:28.043Z,96114.44
2022-12-31T04:26:54.452Z,96102.69
2022-12-31T04:29:20.942Z,96099.75
2022-12-31T04:31:47.575Z,96101.72
2022-12-31T04:34:14.193Z,96096.03
2022-12-31T04:36:40.685Z,96090.97
2022-12-31T04:39:07.104Z,96090.00
2022-12-31T04:41:33.539Z,96084.78
2022-12-31T04:44:00.828Z,96078.91
2022-12-31T04:46:28.815Z,96093.97
2022-12-31T04:48:55.472Z,96102.34
2022-12-31T04:51:22.517Z,96097.09
2022-12-31T04:53:49.097Z,96084.16
2022-12-31T04:56:16.321Z,96087.78
2022-12-31T04:58:42.729Z,96109.06
2022-12-31T05:01:09.346Z,96121.84
2022-12-31T05:03:36.368Z,96122.50
2022-12-31T05:06:07.491Z,96129.06
2022-12-31T05:08:34.026Z,96127.56
2022-12-31T05:11:00.471Z,96126.44
2022-12-31T05:13:32.910Z,96127.75
2022-12-31T05:15:59.869Z,96127.44
2022-12-31T05:18:26.347Z,96122.19
2022-12-31T05:20:52.776Z,96115.78
2022-12-31T05:23:19.353Z,96119.06
2022-12-31T05:25:47.093Z,96115.47
2022-12-31T05:28:13.839Z,96121.22
2022-12-31T05:30:40.818Z,96114.97
2022-12-31T05:33:07.304Z,96122.50
2022-12-31T05:35:33.787Z,96122.00
2022-12-31T05:38:00.453Z,96121.69
2022-12-31T05:40:27.455Z,96128.72
2022-12-31T05:42:54.154Z,96125.28
2022-12-31T05:45:25.243Z,96126.75
2022-12-31T05:47:55.068Z,96132.00
2022-12-31T05:50:21.541Z,96115.94
2022-12-31T05:52:47.994Z,96119.03
2022-12-31T05:55:14.504Z,96117.22
2022-12-31T05:57:41.089Z,96121.47
2022-12-31T06:00:09.047Z,96132.47
2022-12-31T06:02:35.730Z,96130.66
2022-12-31T06:05:02.270Z,96133.63
2022-12-31T06:07:28.713Z,96136.09
2022-12-31T06:09:55.181Z,96138.88
2022-12-31T06:12:21.689Z,96144.78
2022-12-31T06:14:48.149Z,96136.91
2022-12-31T06:17:14.620Z,96138.88
2022-12-31T06:19:41.105Z,96148.19
2022-12-31T06:22:07.537Z,96146.75
2022-12-31T06:24:33.997Z,96151.00
2022-12-31T06:27:00.473Z,96144.78
2022-12-31T06:29:26.914Z,96154.28
2022-12-31T06:31:53.338Z,96168.22
2022-12-31T06:34:19.886Z,96182.16
2022-12-31T06:36:46.444Z,96177.91
2022-12-31T06:39:12.864Z,96175.94
2022-12-31T06:41:39.349Z,96170.50
2022-12-31T06:44:06.369Z,96167.72
2022-12-31T06:46:32.951Z,96165.91
2022-12-31T06:48:59.448Z,96171.00
2022-12-31T06:51:25.879Z,96185.75
2022-12-31T06:53:52.449Z,96185.56
2022-12-31T06:56:20.265Z,96193.28
2022-12-31T06:58:47.508Z,96183.94
2022-12-31T07:01:26.258Z,96199.22
2022-12-31T07:04:00.293Z,96210.53
2022-12-31T07:06:31.397Z,96213.31
2022-12-31T07:08:57.799Z,96229.06
2022-12-31T07:11:28.936Z,96223.81
2022-12-31T07:14:18.576Z,96229.88
2022-12-31T07:17:05.096Z,96230.69
2022-12-31T07:19:57.671Z,96240.19
2022-12-31T07:22:24.687Z,96245.78
2022-12-31T07:24:51.284Z,96247.59
2022-12-31T07:27:36.248Z,96238.25
2022-12-31T07:30:13.589Z,96236.63
2022-12-31T07:32:58.867Z,96234.97
2022-12-31T07:35:35.015Z,96227.75
2022-12-31T07:38:18.741Z,96229.38
2022-12-31T07:41:09.335Z,96226.94
2022-12-31T07:43:41.266Z,96228.41
2022-12-31T07:46:26.513Z,96233.31
2022-12-31T07:48:53.205Z,96235.94
2022-12-31T07:51:19.825Z,96232.66
2022-12-31T07:53:46.255Z,96229.56
2022-12-31T07:56:13.090Z,96232.31
2022-12-31T07:58:58.277Z,96242.19
2022-12-31T08:01:39.812Z,96244.50
2022-12-31T08:04:06.344Z,96251.03
2022-12-31T08:06:38.845Z,96245.97
2022-12-31T08:09:11.350Z,96254.16
2022-12-31T08:11:37.788Z,96257.91
2022-12-31T08:14:08.681Z,96264.97
2022-12-31T08:16:35.281Z,96268.41
2022-12-31T08:19:01.872Z,96265.78
2022-12-31T08:21:48.936Z,96273.81
2022-12-31T08:24:21.320Z,96276.28
2022-12-31T08:26:53.151Z,96257.75
2022-12-31T08:29:34.231Z,96263.50
2022-12-31T08:32:11.810Z,96266.44
2022-12-31T08:34:54.735Z,96260.69
2022-12-31T08:37:24.153Z,96257.59
2022-12-31T08:39:50.566Z,96260.91
2022-12-31T08:42:26.168Z,96269.25
2022-12-31T08:45:18.995Z,96274.00
2022-12-31T08:47:48.503Z,96273.50
2022-12-31T08:50:15.928Z,96269.09
2022-12-31T08:52:42.608Z,96270.06
2022-12-31T08:55:12.788Z,96277.63
2022-12-31T08:57:42.677Z,96279.75
2022-12-31T09:00:17.026Z,96287.44
2022-12-31T09:02:58.386Z,96283.34
2022-12-31T09:05:46.034Z,96281.56
2022-12-31T09:08:12.474Z,96288.09
2022-12-31T09:10:42.861Z,96291.22
2022-12-31T09:13:25.003Z,96289.44
2022-12-31T09:15:59.973Z,96290.41
2022-12-31T09:18:32.851Z,96292.84
2022-12-31T09:20:59.768Z,96286.81
2022-12-31T09:23:26.360Z,96287.13
2022-12-31T09:25:59.919Z,96296.81
2022-12-31T09:28:35.394Z,96292.53
2022-12-31T09:31:37.470Z,96288.25
2022-12-31T09:34:16.790Z,96284.00
2022-12-31T09:36:46.409Z,96279.41
2022-12-31T09:39:17.076Z,96265.47
2022-12-31T09:41:55.594Z,96264.94
2022-12-31T09:44:37.364Z,96258.25
2022-12-31T09:47:33.247Z,96259.53
2022-12-31T09:50:08.702Z,96259.53
2022-12-31T09:52:44.318Z,96252.31
2022-12-31T09:55:29.670Z,96261.84
2022-12-31T09:58:11.361Z,96262.31
2022-12-31T10:00:37.784Z,96272.00
2022-12-31T10:03:04.230Z,96271.47
2022-12-31T10:05:43.618Z,96275.25
2022-12-31T10:08:28.566Z,96276.75
2022-12-31T10:11:05.698Z,96277.88
2022-12-31T10:13:42.545Z,96296.59
2022-12-31T10:16:17.925Z,96290.34
2022-12-31T10:18:49.947Z,96283.75
2022-12-31T10:21:31.487Z,96276.53
2022-12-31T10:24:07.169Z,96278.16
2022-12-31T10:26:53.516Z,96287.03
2022-12-31T10:29:23.117Z,96284.06
2022-12-31T10:31:49.541Z,96290.00
2022-12-31T10:34:25.184Z,96273.88
2022-12-31T10:36:53.934Z,96256.13
2022-12-31T10:39:39.438Z,96249.25
2022-12-31T10:42:24.627Z,96245.63
2022-12-31T10:44:54.278Z,96264.69
2022-12-31T10:47:33.261Z,96256.44
2022-12-31T10:50:18.649Z,96254.31
2022-12-31T10:52:57.282Z,96266.47
2022-12-31T10:55:26.770Z,96277.44
2022-12-31T10:58:08.558Z,96276.13
2022-12-31T11:00:48.330Z,96272.97
2022-12-31T11:03:32.965Z,96265.91
2022-12-31T11:06:19.671Z,96257.69
2022-12-31T11:08:52.017Z,96253.06
2022-12-31T11:11:33.713Z,96245.84
2022-12-31T11:14:06.349Z,96244.84
2022-12-31T11:16:48.837Z,96235.69
2022-12-31T11:19:27.570Z,96235.31
2022-12-31T11:22:00.004Z,96233.69
2022-12-31T11:24:29.616Z,96245.00
2022-12-31T11:26:56.061Z,96232.69
2022-12-31T11:29:22.718Z,96231.69
2022-12-31T11:31:49.124Z,96231.69
2022-12-31T11:34:18.683Z,96243.22
2022-12-31T11:36:45.577Z,96244.53
2022-12-31T11:39:31.412Z,96227.97
2022-12-31T11:42:16.314Z,96224.69
2022-12-31T11:44:51.680Z,96236.03
2022-12-31T11:47:38.084Z,96232.75
2022-12-31T11:50:26.373Z,96227.47
2022-12-31T11:53:31.185Z,96236.03
2022-12-31T11:56:00.422Z,96245.72
2022-12-31T11:58:28.854Z,96255.41
2022-12-31T12:01:09.403Z,96253.59
2022-12-31T12:03:42.431Z,96255.06
2022-12-31T12:06:13.505Z,96253.41
2022-12-31T12:08:40.560Z,96254.25
2022-12-31T12:11:13.641Z,96240.44
2022-12-31T12:13:40.111Z,96235.03
2022-12-31T12:16:07.470Z,96245.22
2022-12-31T12:18:38.064Z,96250.50
2022-12-31T12:21:12.609Z,96257.72
2022-12-31T12:23:39.532Z,96261.34
2022-12-31T12:26:06.530Z,96260.53
2022-12-31T12:28:44.653Z,96264.94
2022-12-31T12:31:19.132Z,96259.34
2022-12-31T12:33:46.157Z,96268.91
2022-12-31T12:36:14.022Z,96264.78
2022-12-31T12:38:40.748Z,96264.06
2022-12-31T12:41:11.282Z,96278.69
2022-12-31T12:43:38.340Z,96281.47
2022-12-31T12:46:18.609Z,96288.03
2022-12-31T12:48:47.809Z,96278.66
2022-12-31T12:51:33.007Z,96280.75
2022-12-31T12:54:18.419Z,96281.41
2022-12-31T12:57:03.786Z,96274.34
2022-12-31T12:59:36.290Z,96270.25
2022-12-31T13:02:02.876Z,96272.03
2022-12-31T13:04:34.713Z,96274.69
2022-12-31T13:07:11.953Z,96287.81
2022-12-31T13:09:56.980Z,96292.78
2022-12-31T13:12:56.882Z,96302.16
2022-12-31T13:15:39.708Z,96301.50
2022-12-31T13:18:18.237Z,96293.97
2022-12-31T13:20:50.164Z,96291.97
2022-12-31T13:23:16.640Z,96285.19
2022-12-31T13:25:43.176Z,96287.03
2022-12-31T13:28:11.833Z,96291.47
2022-12-31T13:30:40.900Z,96275.69
2022-12-31T13:33:13.920Z,96277.97
2022-12-31T13:35:44.781Z,96287.03
2022-12-31T13:38:23.717Z,96285.91
2022-12-31T13:41:10.539Z,96292.47
2022-12-31T13:43:37.066Z,96291.19
2022-12-31T13:46:06.543Z,96293.31
2022-12-31T13:48:36.526Z,96301.19
2022-12-31T13:51:11.819Z,96300.22
2022-12-31T13:54:01.772Z,96312.88
2022-12-31T13:56:31.480Z,96307.78
2022-12-31T13:59:01.619Z,96307.63
2022-12-31T14:01:34.022Z,96299.38
2022-12-31T14:04:00.808Z,96289.69
2022-12-31T14:06:49.478Z,96303.34
2022-12-31T14:09:26.314Z,96303.34
2022-12-31T14:12:11.216Z,96294.13
2022-12-31T14:14:42.302Z,96304.84
2022-12-31T14:17:17.633Z,96307.31
2022-12-31T14:20:03.836Z,96321.09
2022-12-31T14:22:36.162Z,96322.09
2022-12-31T14:25:04.063Z,96315.19
2022-12-31T14:27:34.259Z,96318.81
2022-12-31T14:30:00.767Z,96317.84
2022-12-31T14:32:37.091Z,96320.47
2022-12-31T14:35:03.523Z,96318.63
2022-12-31T14:37:48.674Z,96327.38
2022-12-31T14:40:23.966Z,96331.63
2022-12-31T14:42:50.380Z,96331.97
2022-12-31T14:45:36.654Z,96330.97
2022-12-31T14:48:21.603Z,96331.63
2022-12-31T14:50:48.764Z,96343.47
2022-12-31T14:53:18.709Z,96330.50
2022-12-31T14:55:55.982Z,96321.81
2022-12-31T14:58:28.901Z,96311.47
2022-12-31T15:01:16.047Z,96317.56
2022-12-31T15:03:45.692Z,96326.13
2022-12-31T15:06:18.879Z,96338.91
2022-12-31T15:09:08.300Z,96320.88
2022-12-31T15:11:35.192Z,96333.03
2022-12-31T15:14:01.596Z,96339.63
2022-12-31T15:16:43.454Z,96333.03
2022-12-31T15:19:09.908Z,96326.63
2022-12-31T15:21:39.154Z,96332.41
2022-12-31T15:24:19.361Z,96334.03
2022-12-31T15:26:48.307Z,96330.25
2022-12-31T15:29:34.498Z,96339.47
2022-12-31T15:32:02.746Z,96353.56
2022-12-31T15:34:34.938Z,96355.06
2022-12-31T15:37:03.283Z,96371.13
2022-12-31T15:39:32.750Z,96378.38
2022-12-31T15:44:50.603Z,96377.38
2022-12-31T15:47:31.446Z,96384.59
2022-12-31T15:50:03.862Z,96396.09
2022-12-31T15:52:33.040Z,96386.53
2022-12-31T15:55:00.389Z,96385.72
2022-12-31T15:57:34.193Z,96394.59
2022-12-31T16:00:02.272Z,96377.22
2022-12-31T16:02:29.177Z,96383.25
2022-12-31T16:04:55.948Z,96385.25
2022-12-31T16:07:23.674Z,96389.66
2022-12-31T16:09:52.896Z,96394.09
2022-12-31T16:12:20.783Z,96398.50
2022-12-31T16:14:50.512Z,96402.97
2022-12-31T16:17:23.275Z,96406.25
2022-12-31T16:19:49.718Z,96408.19
2022-12-31T16:22:17.690Z,96415.91
2022-12-31T16:25:10.825Z,96396.72
2022-12-31T16:27:31.364Z,96401.28
2022-12-31T16:29:59.877Z,96391.97
2022-12-31T16:32:26.650Z,96395.88
2022-12-31T16:34:54.857Z,96391.13
2022-12-31T16:37:22.882Z,96395.19
2022-12-31T16:39:58.185Z,96403.56
2022-12-31T16:42:25.388Z,96402.56
2022-12-31T16:44:52.715Z,96418.03
2022-12-31T16:47:23.556Z,96423.78
2022-12-31T16:50:00.149Z,96419.84
2022-12-31T16:52:35.618Z,96421.50
2022-12-31T16:55:07.157Z,96422.97
2022-12-31T16:57:34.553Z,96431.50
2022-12-31T17:00:03.059Z,96435.59
2022-12-31T17:02:35.511Z,96431.16
2022-12-31T17:05:02.290Z,96419.72
2022-12-31T17:07:31.693Z,96412.47
2022-12-31T17:10:21.495Z,96419.38
2022-12-31T17:15:40.876Z,96417.69
2022-12-31T17:18:07.847Z,96414.91
2022-12-31T17:20:34.667Z,96414.59
2022-12-31T17:23:03.687Z,96416.38
2022-12-31T17:25:32.138Z,96430.31
2022-12-31T17:28:18.345Z,96436.41
2022-12-31T17:30:44.916Z,96437.38
2022-12-31T17:33:11.340Z,96428.69
2022-12-31T17:35:42.257Z,96437.03
2022-12-31T17:38:18.039Z,96437.03
2022-12-31T17:40:53.023Z,96431.78
2022-12-31T17:43:21.415Z,96437.69
2022-12-31T17:45:50.162Z,96436.75
2022-12-31T17:48:17.621Z,96438.38
2022-12-31T17:50:48.115Z,96433.94
2022-12-31T17:53:14.892Z,96442.78
2022-12-31T17:55:42.263Z,96435.06
2022-12-31T17:58:16.428Z,96447.53
2022-12-31T18:00:42.888Z,96430.16
2022-12-31T18:03:09.464Z,96450.47
2022-12-31T18:05:35.961Z,96430.47
2022-12-31T18:08:02.547Z,96445.91
2022-12-31T18:10:30.149Z,96440.66
2022-12-31T18:12:58.866Z,96447.19
2022-12-31T18:15:25.319Z,96442.59
2022-12-31T18:17:51.807Z,96427.69
2022-12-31T18:20:18.495Z,96439.03
2022-12-31T18:22:45.297Z,96440.97
2022-12-31T18:25:14.036Z,96459.19
2022-12-31T18:27:42.114Z,96443.28
2022-12-31T18:30:11.576Z,96466.91
2022-12-31T18:32:39.987Z,96456.41
2022-12-31T18:35:32.882Z,96441.00
2022-12-31T18:37:58.633Z,96461.81
2022-12-31T18:40:25.240Z,96432.78
2022-12-31T18:42:51.686Z,96445.63
2022-12-31T18:45:19.643Z,96440.22
2022-12-31T18:47:46.240Z,96434.13
2022-12-31T18:50:14.711Z,96442.00
2022-12-31T18:52:41.155Z,96446.25
2022-12-31T18:55:30.387Z,96429.53
2022-12-31T18:57:56.879Z,96447.91
2022-12-31T19:00:23.746Z,96458.41
2022-12-31T19:02:50.265Z,96454.47
2022-12-31T19:05:19.842Z,96455.13
2022-12-31T19:07:46.304Z,96454.78
2022-12-31T19:10:16.812Z,96444.13
2022-12-31T19:12:43.641Z,96441.66
2022-12-31T19:15:22.531Z,96434.44
2022-12-31T19:17:48.986Z,96428.38
2022-12-31T19:20:15.598Z,96435.25
2022-12-31T19:22:42.070Z,96451.00
2022-12-31T19:25:20.705Z,96454.63
2022-12-31T19:27:47.582Z,96440.50
2022-12-31T19:30:18.597Z,96439.03
2022-12-31T19:32:45.167Z,96458.34
2022-12-31T19:35:12.799Z,96438.53
2022-12-31T19:37:39.516Z,96450.47
2022-12-31T19:40:06.298Z,96448.69
2022-12-31T19:42:32.757Z,96449.81
2022-12-31T19:44:59.240Z,96459.34
2022-12-31T19:47:25.669Z,96479.03
2022-12-31T19:49:52.111Z,96455.13
2022-12-31T19:52:18.565Z,96448.53
2022-12-31T19:54:45.021Z,96464.78
2022-12-31T19:57:11.440Z,96467.09
2022-12-31T19:59:37.882Z,96479.09
2022-12-31T20:02:04.538Z,96467.94
2022-12-31T20:04:31.164Z,96479.41
2022-12-31T20:06:57.613Z,96484.16
2022-12-31T20:09:24.060Z,96486.13
2022-12-31T20:11:50.493Z,96482.50
2022-12-31T20:14:16.964Z,96480.72
2022-12-31T20:16:43.478Z,96492.19
2022-12-31T20:19:10.308Z,96500.75
2022-12-31T20:21:36.830Z,96496.13
2022-12-31T20:24:03.338Z,96510.91
2022-12-31T20:26:29.764Z,96502.06
2022-12-31T20:28:56.176Z,96507.31
2022-12-31T20:31:24.514Z,96502.22
2022-12-31T20:33:50.988Z,96518.28
2022-12-31T20:36:17.767Z,96504.66
2022-12-31T20:38:44.343Z,96502.69
2022-12-31T20:41:12.105Z,96510.91
2022-12-31T20:43:38.711Z,96514.06
2022-12-31T20:46:15.642Z,96510.59
2022-12-31T20:48:43.039Z,96510.59
2022-12-31T20:51:09.534Z,96511.72
2022-12-31T20:53:35.974Z,96515.34
2022-12-31T20:56:06.160Z,96514.22
2022-12-31T20:58:32.660Z,96510.09
2022-12-31T21:00:59.376Z,96516.50
2022-12-31T21:04:02.820Z,96520.44
2022-12-31T21:06:12.560Z,96527.34
2022-12-31T21:08:39.442Z,96527.34
2022-12-31T21:11:25.245Z,96519.47
2022-12-31T21:13:51.655Z,96519.47
2022-12-31T21:16:18.276Z,96520.59
2022-12-31T21:18:44.994Z,96522.53
2022-12-31T21:21:12.155Z,96521.75
2022-12-31T21:23:38.617Z,96528.63
2022-12-31T21:26:05.375Z,96521.25
2022-12-31T21:28:32.287Z,96530.75
2022-12-31T21:30:59.205Z,96538.63
2022-12-31T21:33:25.697Z,96537.63
2022-12-31T21:35:54.233Z,96549.94
2022-12-31T21:38:21.776Z,96549.13
2022-12-31T21:40:48.704Z,96547.50
2022-12-31T21:43:15.964Z,96551.06
2022-12-31T21:45:42.420Z,96549.13
2022-12-31T21:48:22.041Z,96541.91
2022-12-31T21:50:50.029Z,96549.44
2022-12-31T21:53:23.471Z,96557.47
2022-12-31T21:56:09.026Z,96551.22
2022-12-31T21:58:36.657Z,96559.09
2022-12-31T22:01:21.640Z,96550.41
2022-12-31T22:03:48.414Z,96554.84
2022-12-31T22:06:20.450Z,96556.81
2022-12-31T22:08:47.979Z,96554.03
2022-12-31T22:11:14.848Z,96551.56
2022-12-31T22:13:41.712Z,96545.31
2022-12-31T22:16:08.281Z,96538.59
2022-12-31T22:18:38.722Z,96544.00
2022-12-31T22:21:19.203Z,96535.47
2022-12-31T22:23:47.631Z,96538.75
2022-12-31T22:26:15.134Z,96537.75
2022-12-31T22:28:42.939Z,96518.56
2022-12-31T22:31:11.345Z,96524.63
2022-12-31T22:33:37.784Z,96524.47
2022-12-31T22:36:05.571Z,96521.03
2022-12-31T22:38:32.705Z,96528.91
2022-12-31T22:41:03.197Z,96525.47
2022-12-31T22:43:30.766Z,96529.88
2022-12-31T22:45:57.269Z,96528.75
2022-12-31T22:48:23.706Z,96532.34
2022-12-31T22:50:59.342Z,96558.41
2022-12-31T22:53:25.795Z,96545.44
2022-12-31T22:55:54.529Z,96528.53
2022-12-31T22:58:21.714Z,96537.41
2022-12-31T23:00:48.181Z,96531.84
2022-12-31T23:03:14.713Z,96530.22
2022-12-31T23:05:41.623Z,96519.72
2022-12-31T23:08:20.571Z,96533.16
2022-12-31T23:11:08.817Z,96532.66
2022-12-31T23:14:01.329Z,96530.81
2022-12-31T23:16:47.695Z,96527.22
2022-12-31T23:19:33.646Z,96525.56
2022-12-31T23:22:19.097Z,96537.72
2022-12-31T23:24:45.531Z,96536.91
2022-12-31T23:27:11.999Z,96537.72
2022-12-31T23:29:45.605Z,96538.19
2022-12-31T23:32:13.458Z,96533.09
2022-12-31T23:34:39.909Z,96522.75
2022-12-31T23:37:06.337Z,96529.09
2022-12-31T23:39:32.825Z,96537.78
2022-12-31T23:42:00.249Z,96527.81
2022-12-31T23:44:26.871Z,96536.19
2022-12-31T23:46:53.367Z,96541.28
2022-12-31T23:49:19.820Z,96529.78
2022-12-31T23:51:46.261Z,96531.47
2022-12-31T23:54:15.998Z,96530.63
2022-12-31T23:56:42.559Z,96526.06
2022-12-31T23:59:09.831Z,96527.84
